Time;durP1;ratioP1;P1;durP2;ratioP2;P2;SDS_P1;SDS_P2;PMS_P1;PMS_P2;Temp;Humidity;BMP_temperature;BMP_pressure;BME280_temperature;BME280_humidity;BME280_pressure;Samples;Min_cycle;Max_cycle;Signal;HPM_P1;HPM_P2
2021/10/08 00:00:54;;;;;;;40.45;22.98;;;;;;;4.18;75.11;98256.83;1846335;76;25699;-86
2021/10/08 00:03:20;;;;;;;43.08;21.30;;;;;;;4.14;75.09;98257.61;1847368;76;25765;-85
2021/10/08 00:05:50;;;;;;;41.63;21.62;;;;;;;4.12;75.13;98260.93;1847098;77;25715;-86
2021/10/08 00:08:16;;;;;;;38.85;20.85;;;;;;;4.09;75.13;98250.56;1847485;76;25447;-87
2021/10/08 00:10:43;;;;;;;37.53;20.57;;;;;;;4.08;75.20;98256.05;1842126;77;27406;-85
2021/10/08 00:13:09;;;;;;;37.10;21.23;;;;;;;4.08;75.28;98256.90;1828653;77;25715;-87
2021/10/08 00:15:36;;;;;;;46.35;22.50;;;;;;;4.09;75.44;98255.06;1832006;76;25750;-87
2021/10/08 00:18:03;;;;;;;37.90;21.00;;;;;;;4.10;75.59;98256.75;1808868;77;26266;-85
2021/10/08 00:20:29;;;;;;;37.40;20.55;;;;;;;4.12;75.65;98256.08;1831232;77;25674;-86
2021/10/08 00:22:56;;;;;;;46.40;22.27;;;;;;;4.12;75.68;98252.07;1836721;76;27321;-86
2021/10/08 00:25:22;;;;;;;36.48;19.75;;;;;;;4.09;75.70;98255.06;1847399;77;25655;-85
2021/10/08 00:27:49;;;;;;;45.05;20.37;;;;;;;4.10;75.86;98256.75;1844061;76;25722;-85
2021/10/08 00:30:16;;;;;;;36.85;19.23;;;;;;;4.12;75.85;98260.93;1847013;77;26237;-86
2021/10/08 00:32:42;;;;;;;38.48;21.42;;;;;;;4.13;75.81;98259.94;1845030;77;25265;-88
2021/10/08 00:35:09;;;;;;;44.98;21.25;;;;;;;4.14;75.82;98264.79;1827235;76;28155;-86
2021/10/08 00:37:36;;;;;;;43.23;21.82;;;;;;;4.13;75.83;98263.95;1846953;76;25298;-86
2021/10/08 00:40:04;;;;;;;44.95;22.62;;;;;;;4.13;75.93;98267.95;1833014;77;25785;-86
2021/10/08 00:42:31;;;;;;;50.50;22.82;;;;;;;4.12;76.01;98272.11;1806062;77;26318;-87
2021/10/08 00:44:57;;;;;;;44.18;22.95;;;;;;;4.13;76.02;98271.13;1837566;77;26373;-88
2021/10/08 00:47:24;;;;;;;44.63;22.22;;;;;;;4.14;76.04;98275.48;1824707;76;28309;-85
2021/10/08 00:49:51;;;;;;;45.28;22.82;;;;;;;4.14;76.13;98274.14;1847338;76;25285;-86
2021/10/08 00:52:18;;;;;;;42.15;21.17;;;;;;;4.13;76.17;98275.97;1814085;77;25760;-87
2021/10/08 00:54:45;;;;;;;47.93;23.22;;;;;;;4.12;76.19;98282.30;1846078;77;25745;-86
2021/10/08 00:57:13;;;;;;;53.38;25.57;;;;;;;4.14;76.32;98276.81;1814076;77;25716;-87
2021/10/08 00:59:41;;;;;;;47.62;22.80;;;;;;;4.17;76.44;98277.37;1846027;76;27419;-85
2021/10/08 01:02:08;;;;;;;47.85;22.73;;;;;;;4.21;76.53;98280.09;1846847;76;26478;-86
2021/10/08 01:04:34;;;;;;;49.50;24.37;;;;;;;4.25;76.68;98280.12;1847455;77;25769;-86
2021/10/08 01:07:01;;;;;;;53.28;23.30;;;;;;;4.29;76.75;98282.00;1817905;77;25689;-89
2021/10/08 01:09:28;;;;;;;52.98;24.67;;;;;;;4.27;76.78;98277.30;1847559;76;25798;-86
2021/10/08 01:11:57;;;;;;;45.88;23.40;;;;;;;4.29;76.92;98275.32;1847482;77;28181;-89
2021/10/08 01:14:24;;;;;;;45.80;22.65;;;;;;;4.32;76.99;98275.03;1845848;76;25684;-85
2021/10/08 01:16:50;;;;;;;55.23;24.40;;;;;;;4.35;76.96;98278.71;1842569;76;25751;-90
2021/10/08 01:19:17;;;;;;;49.42;23.85;;;;;;;4.37;77.00;98272.72;1824536;77;25731;-85
2021/10/08 01:21:44;;;;;;;47.85;22.60;;;;;;;4.40;76.99;98281.78;1845869;76;26278;-85
2021/10/08 01:24:11;;;;;;;49.63;23.18;;;;;;;4.43;77.08;98275.30;1825905;77;27468;-88
2021/10/08 01:26:38;;;;;;;60.23;21.35;;;;;;;4.44;77.12;98279.16;1835480;76;26334;-87
2021/10/08 01:29:09;;;;;;;51.70;21.97;;;;;;;4.40;77.03;98288.47;1846875;76;25659;-84
2021/10/08 01:31:36;;;;;;;42.88;21.97;;;;;;;4.37;77.12;98284.75;1823628;77;25656;-85
2021/10/08 01:34:03;;;;;;;40.38;20.37;;;;;;;4.38;77.22;98287.77;1817063;77;25238;-85
2021/10/08 01:36:29;;;;;;;42.75;21.17;;;;;;;4.40;77.26;98288.47;1845032;77;27318;-86
2021/10/08 01:38:56;;;;;;;46.30;21.17;;;;;;;4.43;77.32;98292.19;1846508;76;25730;-86
2021/10/08 01:41:23;;;;;;;32.58;19.87;;;;;;;4.46;77.37;98287.88;1829291;76;26542;-85
2021/10/08 01:43:50;;;;;;;32.73;19.32;;;;;;;4.49;77.45;98290.72;1818571;77;25749;-87
2021/10/08 01:46:16;;;;;;;39.92;19.57;;;;;;;4.50;77.54;98290.58;1828615;77;25299;-85
2021/10/08 01:48:43;;;;;;;37.40;19.40;;;;;;;4.51;77.52;98296.27;1838188;76;27448;-85
2021/10/08 01:51:09;;;;;;;30.62;18.00;;;;;;;4.51;77.53;98288.25;1831257;76;25697;-86
2021/10/08 01:53:36;;;;;;;39.67;18.17;;;;;;;4.50;77.55;98291.06;1820402;77;25737;-84
2021/10/08 01:56:02;;;;;;;31.95;18.02;;;;;;;4.49;77.48;98288.05;1847244;77;26221;-89
2021/10/08 01:58:29;;;;;;;30.75;17.40;;;;;;;4.49;77.59;98294.23;1838411;76;25778;-85
2021/10/08 02:00:56;;;;;;;38.75;19.25;;;;;;;4.47;77.58;98297.55;1835271;77;28332;-84
2021/10/08 02:03:22;;;;;;;34.20;18.20;;;;;;;4.46;77.55;98302.58;1844648;77;25674;-88
2021/10/08 02:05:49;;;;;;;37.42;18.90;;;;;;;4.45;77.46;98295.55;1846487;77;25999;-86
2021/10/08 02:08:15;;;;;;;34.20;17.12;;;;;;;4.42;77.47;98299.02;1845285;77;25722;-86
2021/10/08 02:10:42;;;;;;;36.33;18.25;;;;;;;4.38;77.49;98295.80;1846938;77;25755;-86
2021/10/08 02:13:08;;;;;;;30.05;16.65;;;;;;;4.33;77.44;98296.76;1846885;76;27340;-87
2021/10/08 02:15:35;;;;;;;30.62;16.48;;;;;;;4.29;77.50;98302.05;1830839;76;25764;-87
2021/10/08 02:18:02;;;;;;;31.97;17.50;;;;;;;4.27;77.57;98296.01;1822845;77;25779;-88
2021/10/08 02:20:29;;;;;;;34.73;18.65;;;;;;;4.27;77.65;98299.52;1846728;76;25639;-88
2021/10/08 02:22:55;;;;;;;37.25;17.90;;;;;;;4.27;77.66;98306.20;1846923;77;25803;-85
2021/10/08 02:25:22;;;;;;;31.80;17.60;;;;;;;4.27;77.66;98304.03;1845893;77;28281;-87
2021/10/08 02:27:48;;;;;;;36.00;18.67;;;;;;;4.25;77.65;98304.66;1845915;77;25707;-86
2021/10/08 02:30:15;;;;;;;31.40;17.25;;;;;;;4.27;77.67;98301.35;1839634;76;25723;-86
2021/10/08 02:32:42;;;;;;;31.12;16.75;;;;;;;4.28;77.69;98307.05;1846871;76;26387;-86
2021/10/08 02:35:08;;;;;;;29.72;15.85;;;;;;;4.26;77.68;98308.53;1846902;77;25337;-85
2021/10/08 02:37:36;;;;;;;27.48;15.28;;;;;;;4.26;77.68;98303.19;1846793;77;28195;-85
2021/10/08 02:40:05;;;;;;;28.80;15.68;;;;;;;4.29;77.70;98308.73;1818152;77;25739;-85
2021/10/08 02:42:31;;;;;;;34.90;16.30;;;;;;;4.29;77.65;98307.39;1844102;76;25805;-86
2021/10/08 02:44:58;;;;;;;26.42;14.65;;;;;;;4.28;77.70;98308.37;1839355;77;25952;-87
2021/10/08 02:47:25;;;;;;;26.80;15.10;;;;;;;4.32;77.82;98313.78;1846220;76;25671;-85
2021/10/08 02:49:51;;;;;;;25.43;14.70;;;;;;;4.33;77.82;98311.46;1831901;76;27252;-87
2021/10/08 02:52:18;;;;;;;31.27;15.88;;;;;;;4.35;77.87;98314.80;1832565;76;25873;-85
2021/10/08 02:54:44;;;;;;;26.07;14.75;;;;;;;4.37;77.87;98315.49;1832482;76;25737;-89
2021/10/08 02:57:11;;;;;;;28.87;15.55;;;;;;;4.40;77.87;98319.70;1820317;76;25347;-85
2021/10/08 02:59:39;;;;;;;22.40;14.35;;;;;;;4.40;77.91;98319.70;1846755;77;25812;-84
2021/10/08 03:02:06;;;;;;;25.20;14.75;;;;;;;4.38;77.90;98327.03;1846989;76;28172;-87
2021/10/08 03:04:32;;;;;;;27.35;15.72;;;;;;;4.37;78.01;98322.17;1840946;77;25689;-89
2021/10/08 03:06:59;;;;;;;28.90;15.28;;;;;;;4.38;77.99;98323.86;1821130;77;25763;-87
2021/10/08 03:09:25;;;;;;;27.02;14.55;;;;;;;4.40;78.06;98327.72;1845099;77;25663;-86
2021/10/08 03:11:52;;;;;;;28.70;14.23;;;;;;;4.41;78.03;98324.06;1816896;77;25654;-87
2021/10/08 03:14:19;;;;;;;26.33;15.23;;;;;;;4.39;77.95;98329.55;1847431;77;27509;-84
2021/10/08 03:16:45;;;;;;;31.15;16.35;;;;;;;4.37;78.03;98326.19;1847208;77;25706;-86
2021/10/08 03:19:12;;;;;;;23.92;14.30;;;;;;;4.34;78.05;98334.03;1847458;77;25675;-86
2021/10/08 03:21:38;;;;;;;25.10;15.03;;;;;;;4.32;78.03;98337.34;1847167;77;25675;-85
2021/10/08 03:24:05;;;;;;;29.60;13.48;;;;;;;4.30;78.06;98337.98;1846869;76;25707;-89
2021/10/08 03:26:32;;;;;;;19.95;13.58;;;;;;;4.29;78.10;98336.80;1813743;77;27346;-86
2021/10/08 03:28:59;;;;;;;24.30;14.55;;;;;;;4.24;78.14;98342.58;1847143;77;25240;-86
2021/10/08 03:31:25;;;;;;;24.43;14.63;;;;;;;4.25;78.17;98342.08;1847162;77;25761;-85
2021/10/08 03:33:52;;;;;;;26.42;14.55;;;;;;;4.26;78.18;98349.11;1847373;77;26471;-86
2021/10/08 03:37:03;;;;;;;21.77;14.03;;;;;;;4.26;78.21;98343.27;1818392;76;25741;-86
2021/10/08 03:38:50;;;;;;;24.85;14.28;;;;;;;4.24;78.21;98347.08;1814805;76;28545;-86
2021/10/08 03:41:19;;;;;;;33.80;14.68;;;;;;;4.20;78.25;98340.37;1847044;77;25718;-85
2021/10/08 03:43:45;;;;;;;28.67;14.53;;;;;;;4.21;78.35;98340.22;1847281;77;25741;-85
2021/10/08 03:46:12;;;;;;;29.72;15.58;;;;;;;4.21;78.38;98342.05;1847339;77;25662;-86
2021/10/08 03:51:30;;;;;;;28.50;15.00;;;;;;;4.22;78.44;98343.73;1847258;77;27427;-85
2021/10/08 03:53:57;;;;;;;24.95;14.35;;;;;;;4.22;78.55;98341.91;1847148;77;25866;-86
2021/10/08 03:56:25;;;;;;;31.35;16.02;;;;;;;4.23;78.59;98340.89;1813907;77;25707;-84
2021/10/08 03:58:51;;;;;;;31.23;16.65;;;;;;;4.21;78.58;98336.70;1847335;77;25638;-86
2021/10/08 04:01:20;;;;;;;34.08;15.75;;;;;;;4.19;78.55;98337.34;1810443;77;25791;-86
2021/10/08 04:03:47;;;;;;;27.27;15.20;;;;;;;4.18;78.50;98337.00;1830044;77;27482;-87
2021/10/08 04:06:15;;;;;;;31.70;16.30;;;;;;;4.18;78.57;98337.00;1811891;77;25699;-87
2021/10/08 04:08:44;;;;;;;27.87;15.88;;;;;;;4.18;78.54;98335.17;1812573;78;25748;-85
2021/10/08 04:11:11;;;;;;;31.80;17.15;;;;;;;4.18;78.51;98347.19;1830591;77;25670;-85
2021/10/08 04:13:37;;;;;;;31.68;16.42;;;;;;;4.18;78.53;98337.84;1828674;77;26319;-86
2021/10/08 04:16:05;;;;;;;38.30;16.85;;;;;;;4.16;78.48;98334.47;1830554;77;28017;-85
2021/10/08 04:18:33;;;;;;;29.72;16.50;;;;;;;4.15;78.47;98342.62;1830352;77;25682;-85
2021/10/08 04:20:59;;;;;;;32.58;17.07;;;;;;;4.14;78.54;98344.95;1810814;78;25775;-85
2021/10/08 04:23:26;;;;;;;31.42;15.32;;;;;;;4.12;78.57;98350.94;1804908;78;26467;-86
2021/10/08 04:25:53;;;;;;;37.20;16.52;;;;;;;4.11;78.66;98350.58;1830583;78;25745;-86
2021/10/08 04:28:19;;;;;;;27.35;16.70;;;;;;;4.08;78.68;98354.42;1830536;78;28156;-85
2021/10/08 04:30:46;;;;;;;28.90;15.85;;;;;;;4.09;78.68;98359.27;1830379;77;25668;-86
2021/10/08 04:33:21;;;;;;;29.07;16.65;;;;;;;4.10;78.80;98364.47;1830592;78;25809;-86
2021/10/08 04:35:49;;;;;;;26.75;15.28;;;;;;;4.12;78.93;98358.95;1830636;78;25670;-86
2021/10/08 04:38:17;;;;;;;26.42;15.15;;;;;;;4.13;78.91;98364.15;1830652;78;25311;-85
2021/10/08 04:40:45;;;;;;;25.60;14.85;;;;;;;4.14;78.83;98368.51;1833502;76;27495;-85
2021/10/08 04:43:12;;;;;;;30.97;15.32;;;;;;;4.15;78.87;98366.68;1836335;76;25710;-85
2021/10/08 04:45:39;;;;;;;35.05;16.82;;;;;;;4.16;78.89;98370.55;1807597;78;25752;-85
2021/10/08 04:48:06;;;;;;;30.48;17.40;;;;;;;4.17;78.99;98374.06;1819641;78;25754;-86
2021/10/08 04:50:33;;;;;;;28.92;16.42;;;;;;;4.18;78.97;98372.58;1830110;78;25688;-86
2021/10/08 04:53:00;;;;;;;28.83;16.65;;;;;;;4.18;78.95;98375.25;1826834;78;27430;-86
2021/10/08 04:55:27;;;;;;;23.45;15.70;;;;;;;4.17;78.98;98372.73;1799436;78;25978;-86
2021/10/08 04:57:53;;;;;;;26.30;15.13;;;;;;;4.15;78.95;98380.89;1832399;76;25722;-87
2021/10/08 05:00:20;;;;;;;28.30;14.03;;;;;;;4.12;78.89;98385.67;1830661;78;25739;-86
2021/10/08 05:02:46;;;;;;;22.20;13.88;;;;;;;4.10;78.83;98387.67;1822377;77;25529;-85
2021/10/08 05:05:13;;;;;;;27.10;13.43;;;;;;;4.09;78.92;98385.98;1834645;77;27401;-85
2021/10/08 05:07:40;;;;;;;22.80;13.50;;;;;;;4.10;78.92;98382.33;1841309;76;25730;-87
2021/10/08 05:10:07;;;;;;;20.20;13.08;;;;;;;4.09;78.92;98386.83;1847006;77;25766;-85
2021/10/08 05:12:33;;;;;;;30.12;14.03;;;;;;;4.09;78.89;98388.66;1846776;77;25833;-87
2021/10/08 05:15:00;;;;;;;26.15;14.23;;;;;;;4.08;78.78;98390.98;1846490;76;25718;-87
2021/10/08 05:17:26;;;;;;;27.27;14.63;;;;;;;4.06;78.79;98392.95;1846895;77;28150;-87
2021/10/08 05:19:53;;;;;;;25.27;15.08;;;;;;;4.05;78.83;98396.61;1831093;77;25760;-85
2021/10/08 05:22:19;;;;;;;26.37;15.95;;;;;;;4.06;78.93;98400.48;1829877;77;25640;-86
2021/10/08 05:24:46;;;;;;;40.58;15.48;;;;;;;4.07;78.96;98398.65;1846893;76;25781;-87
2021/10/08 05:27:12;;;;;;;31.60;15.35;;;;;;;4.09;79.06;98406.88;1846926;77;25731;-88
2021/10/08 05:29:39;;;;;;;40.78;14.58;;;;;;;4.11;79.09;98405.36;1847045;77;28106;-85
2021/10/08 05:32:06;;;;;;;35.45;14.83;;;;;;;4.09;78.99;98412.71;1846747;77;26354;-86
2021/10/08 05:34:33;;;;;;;26.20;14.87;;;;;;;4.05;79.04;98406.80;1846943;76;26290;-87
2021/10/08 05:36:59;;;;;;;51.63;14.30;;;;;;;4.06;79.18;98410.32;1837587;77;25698;-87
2021/10/08 05:39:26;;;;;;;30.40;15.20;;;;;;;4.08;79.27;98412.36;1823046;77;25736;-87
2021/10/08 05:41:52;;;;;;;54.18;16.15;;;;;;;4.11;79.32;98410.70;1826455;77;28097;-87
2021/10/08 05:44:19;;;;;;;36.05;17.50;;;;;;;4.09;79.22;98408.70;1764221;79;25995;-87
2021/10/08 05:46:46;;;;;;;34.45;15.63;;;;;;;4.10;79.24;98413.06;1792235;78;25668;-87
2021/10/08 05:49:12;;;;;;;38.98;14.65;;;;;;;4.08;79.25;98411.86;1795802;78;25672;-87
2021/10/08 05:51:39;;;;;;;23.57;15.40;;;;;;;4.10;79.35;98407.72;1801411;78;25722;-87
2021/10/08 05:54:05;;;;;;;32.33;16.40;;;;;;;4.11;79.37;98418.72;1801296;79;27416;-87
2021/10/08 05:56:32;;;;;;;35.28;15.13;;;;;;;4.11;79.35;98418.72;1790486;79;25681;-87
2021/10/08 05:58:59;;;;;;;39.40;16.12;;;;;;;4.10;79.30;98420.58;1790218;79;25742;-87
2021/10/08 06:01:25;;;;;;;25.52;14.93;;;;;;;4.12;79.41;98421.25;1801156;78;25776;-87
2021/10/08 06:03:52;;;;;;;32.88;16.05;;;;;;;4.12;79.44;98415.06;1804560;78;25750;-86
2021/10/08 06:06:18;;;;;;;27.87;15.13;;;;;;;4.10;79.49;98418.41;1782372;79;27337;-88
2021/10/08 06:08:45;;;;;;;25.70;15.85;;;;;;;4.13;79.67;98428.28;1789688;78;25843;-88
2021/10/08 06:11:12;;;;;;;28.12;14.28;;;;;;;4.15;79.59;98429.48;1797760;78;25244;-87
2021/10/08 06:13:39;;;;;;;26.60;14.87;;;;;;;4.16;79.50;98430.67;1801589;78;25748;-87
2021/10/08 06:16:06;;;;;;;29.25;16.75;;;;;;;4.18;79.48;98434.05;1801768;78;25793;-87
2021/10/08 06:18:32;;;;;;;28.05;16.02;;;;;;;4.20;79.49;98436.08;1791955;78;28617;-88
2021/10/08 06:20:59;;;;;;;31.97;15.25;;;;;;;4.19;79.52;98439.73;1789243;78;25705;-87
2021/10/08 06:23:26;;;;;;;26.27;15.45;;;;;;;4.17;79.57;98437.70;1792528;79;25752;-87
2021/10/08 06:25:52;;;;;;;38.15;16.73;;;;;;;4.19;79.62;98434.89;1785304;78;25958;-87
2021/10/08 06:28:19;;;;;;;29.45;16.23;;;;;;;4.19;79.69;98437.56;1795831;78;25815;-87
2021/10/08 06:30:46;;;;;;;31.30;17.10;;;;;;;4.23;79.85;98437.10;1801470;78;27345;-86
2021/10/08 06:33:12;;;;;;;30.65;16.65;;;;;;;4.23;79.70;98445.61;1801598;77;25699;-87
2021/10/08 06:35:41;;;;;;;29.80;18.02;;;;;;;4.20;79.69;98440.59;1801707;78;26336;-87
2021/10/08 06:38:08;;;;;;;27.35;15.53;;;;;;;4.18;79.77;98440.73;1801726;77;25786;-87
2021/10/08 06:40:35;;;;;;;29.10;17.50;;;;;;;4.24;79.98;98435.27;1779169;77;25758;-87
2021/10/08 06:43:02;;;;;;;32.40;17.00;;;;;;;4.29;79.98;98437.02;1801577;78;27358;-88
2021/10/08 06:45:29;;;;;;;29.82;17.52;;;;;;;4.32;80.01;98443.42;1779087;78;25918;-87
2021/10/08 06:47:56;;;;;;;35.25;17.07;;;;;;;4.35;79.97;98441.77;1785852;78;25698;-87
2021/10/08 06:50:22;;;;;;;25.08;16.37;;;;;;;4.37;79.89;98438.95;1795383;78;25704;-87
2021/10/08 06:52:49;;;;;;;29.60;16.02;;;;;;;4.40;79.86;98446.19;1779320;77;25783;-87
2021/10/08 06:55:15;;;;;;;35.50;16.20;;;;;;;4.48;79.78;98442.27;1801578;78;27585;-87
2021/10/08 06:57:42;;;;;;;28.83;16.80;;;;;;;4.47;79.60;98447.80;1779201;78;25679;-87
2021/10/08 07:00:10;;;;;;;27.55;16.60;;;;;;;4.48;79.62;98454.30;1801607;77;25719;-87
2021/10/08 07:02:52;;;;;;;24.60;16.07;;;;;;;4.45;79.58;98447.94;1799223;78;25798;-86
2021/10/08 07:05:22;;;;;;;30.62;18.20;;;;;;;4.52;79.65;98450.85;1790652;78;25800;-86
2021/10/08 07:07:50;;;;;;;28.50;17.07;;;;;;;4.58;79.75;98447.11;1794616;78;27388;-85
2021/10/08 07:10:18;;;;;;;31.73;17.17;;;;;;;4.63;79.68;98449.31;1780096;78;25809;-87
2021/10/08 07:12:45;;;;;;;27.80;17.48;;;;;;;4.66;79.80;98448.53;1769572;79;26434;-85
2021/10/08 07:15:17;;;;;;;31.10;18.05;;;;;;;4.67;79.91;98448.88;1795715;78;26283;-87
2021/10/08 07:17:50;;;;;;;26.77;16.48;;;;;;;4.75;79.97;98452.63;1800642;78;25752;-86
2021/10/08 07:20:24;;;;;;;32.75;15.60;;;;;;;4.74;79.74;98449.61;1784645;78;27424;-86
2021/10/08 07:22:53;;;;;;;37.80;19.87;;;;;;;4.68;79.59;98453.24;1801200;79;25751;-86
2021/10/08 07:25:23;;;;;;;34.40;18.57;;;;;;;4.73;79.84;98453.27;1801254;78;25785;-86
2021/10/08 07:27:50;;;;;;;31.85;18.20;;;;;;;4.79;79.84;98462.89;1800800;79;25681;-86
2021/10/08 07:30:19;;;;;;;28.52;17.52;;;;;;;4.85;79.75;98466.79;1801358;78;26294;-87
2021/10/08 07:32:47;;;;;;;32.08;17.65;;;;;;;4.89;79.72;98462.83;1801287;78;27454;-86
2021/10/08 07:35:15;;;;;;;29.70;18.75;;;;;;;4.92;79.69;98459.86;1801154;78;25821;-86
2021/10/08 07:37:42;;;;;;;35.08;21.00;;;;;;;5.01;79.68;98458.95;1801218;78;25732;-87
2021/10/08 07:40:12;;;;;;;35.28;19.37;;;;;;;4.99;79.40;98456.92;1795602;78;25788;-86
2021/10/08 07:42:38;;;;;;;33.15;18.57;;;;;;;4.96;79.44;98457.22;1801307;78;25776;-86
2021/10/08 07:45:07;;;;;;;32.67;18.17;;;;;;;4.98;79.56;98453.90;1801175;78;27357;-87
2021/10/08 07:47:35;;;;;;;32.83;19.87;;;;;;;5.06;79.73;98452.17;1795396;78;25858;-86
2021/10/08 07:50:01;;;;;;;27.48;17.52;;;;;;;5.17;79.94;98450.27;1801372;79;25251;-85
2021/10/08 07:52:28;;;;;;;25.05;16.17;;;;;;;5.22;79.91;98454.16;1801305;78;26336;-84
2021/10/08 07:54:54;;;;;;;24.92;15.50;;;;;;;5.29;79.97;98448.55;1795675;78;25735;-85
2021/10/08 07:57:21;;;;;;;24.07;14.87;;;;;;;5.35;79.80;98443.91;1801229;78;27872;-84
2021/10/08 07:59:48;;;;;;;23.30;15.58;;;;;;;5.32;79.66;98450.05;1769773;78;26302;-85
2021/10/08 08:02:14;;;;;;;22.27;15.68;;;;;;;5.32;79.55;98444.20;1788482;79;25531;-85
2021/10/08 08:04:41;;;;;;;21.30;15.00;;;;;;;5.33;79.67;98444.55;1782027;78;26203;-84
2021/10/08 08:07:07;;;;;;;24.57;15.68;;;;;;;5.41;79.88;98444.65;1804702;79;25740;-85
2021/10/08 08:09:34;;;;;;;22.93;14.60;;;;;;;5.53;79.97;98442.58;1782367;79;27357;-84
2021/10/08 08:12:01;;;;;;;20.43;13.20;;;;;;;5.59;79.76;98450.47;1773600;79;25804;-85
2021/10/08 08:14:28;;;;;;;25.80;15.25;;;;;;;5.62;79.66;98451.02;1796103;78;25757;-85
2021/10/08 08:16:55;;;;;;;21.57;13.65;;;;;;;5.58;79.60;98448.29;1804781;78;25692;-85
2021/10/08 08:19:21;;;;;;;21.35;13.32;;;;;;;5.63;79.76;98450.02;1784972;78;25769;-85
2021/10/08 08:21:48;;;;;;;20.52;13.28;;;;;;;5.71;79.85;98445.22;1784364;78;27361;-84
2021/10/08 08:24:14;;;;;;;23.87;14.03;;;;;;;5.81;79.80;98444.62;1801632;79;25385;-85
2021/10/08 08:26:41;;;;;;;21.70;14.98;;;;;;;5.89;79.72;98447.41;1800821;78;25679;-84
2021/10/08 08:29:08;;;;;;;22.98;14.47;;;;;;;5.92;79.63;98449.75;1801682;78;25728;-85
2021/10/08 08:31:34;;;;;;;22.30;15.00;;;;;;;6.00;79.76;98435.59;1779411;77;25241;-84
2021/10/08 08:34:01;;;;;;;26.93;15.38;;;;;;;6.07;79.71;98440.64;1801841;77;27433;-84
2021/10/08 08:36:27;;;;;;;20.75;14.73;;;;;;;6.12;79.59;98440.53;1801764;77;25735;-84
2021/10/08 08:38:56;;;;;;;22.02;15.75;;;;;;;6.17;79.72;98445.89;1801735;79;25695;-85
2021/10/08 08:41:22;;;;;;;25.72;15.32;;;;;;;6.16;79.73;98446.92;1801812;78;25779;-85
2021/10/08 08:43:49;;;;;;;28.87;15.43;;;;;;;6.20;79.84;98444.25;1801790;78;25787;-84
2021/10/08 08:46:15;;;;;;;26.70;17.60;;;;;;;6.28;79.90;98444.31;1785570;79;27404;-85
2021/10/08 08:48:42;;;;;;;33.33;17.95;;;;;;;6.37;79.91;98440.67;1795879;79;25893;-82
2021/10/08 08:51:09;;;;;;;24.77;17.00;;;;;;;6.45;79.87;98438.02;1801639;77;26079;-84
2021/10/08 08:53:36;;;;;;;27.55;17.00;;;;;;;6.54;79.85;98437.55;1801405;78;25735;-83
2021/10/08 08:56:03;;;;;;;30.08;16.97;;;;;;;6.61;79.80;98441.28;1774778;77;25809;-83
2021/10/08 08:58:30;;;;;;;32.28;17.90;;;;;;;6.69;79.83;98447.52;1770196;79;27362;-84
2021/10/08 09:01:00;;;;;;;26.50;16.70;;;;;;;6.76;79.73;98449.88;1771670;77;25779;-84
2021/10/08 09:03:27;;;;;;;28.45;17.17;;;;;;;6.80;79.53;98451.25;1799246;78;26464;-84
2021/10/08 09:05:54;;;;;;;31.02;16.50;;;;;;;6.82;79.43;98452.43;1773620;78;25439;-82
2021/10/08 09:08:33;;;;;;;26.50;17.00;;;;;;;7.00;79.66;98452.34;1793500;79;25827;-85
2021/10/08 09:11:06;;;;;;;27.60;17.92;;;;;;;7.27;79.67;98461.44;1795753;79;27399;-85
2021/10/08 09:13:31;;;;;;;30.97;17.85;;;;;;;7.40;79.36;98459.12;1795244;79;25670;-86
2021/10/08 09:15:59;;;;;;;26.90;17.27;;;;;;;7.57;79.02;98459.48;1795759;78;25815;-84
2021/10/08 09:18:29;;;;;;;33.83;18.05;;;;;;;7.65;78.54;98460.48;1795746;78;25836;-84
2021/10/08 09:21:16;;;;;;;27.05;18.12;;;;;;;7.70;78.23;98454.95;1795720;78;25764;-86
2021/10/08 09:23:47;;;;;;;32.48;19.12;;;;;;;7.66;77.90;98458.98;1789630;78;28238;-82
2021/10/08 09:26:24;;;;;;;34.70;19.00;;;;;;;7.63;77.75;98456.62;1791858;78;25924;-83
2021/10/08 09:29:06;;;;;;;32.80;18.85;;;;;;;7.65;77.71;98461.83;1769835;78;25782;-83
2021/10/08 09:31:42;;;;;;;27.90;17.73;;;;;;;7.68;77.72;98463.69;1791166;79;25780;-84
2021/10/08 09:34:21;;;;;;;31.85;19.23;;;;;;;7.91;77.84;98467.88;1795858;78;25754;-84
2021/10/08 09:36:59;;;;;;;29.80;18.73;;;;;;;8.09;77.24;98459.65;1801483;78;27620;-84
2021/10/08 09:39:31;;;;;;;36.17;18.65;;;;;;;8.34;77.12;98468.52;1800525;78;25742;-84
2021/10/08 09:41:59;;;;;;;28.45;17.52;;;;;;;8.64;76.97;98458.36;1782184;77;25907;-82
2021/10/08 09:44:28;;;;;;;30.27;17.45;;;;;;;8.92;76.62;98460.95;1832977;76;25480;-83
2021/10/08 09:47:17;;;;;;;27.67;17.52;;;;;;;9.18;76.42;98463.83;1817195;77;26220;-85
2021/10/08 09:49:46;;;;;;;31.55;17.80;;;;;;;9.42;76.04;98456.94;1831133;76;27390;-84
2021/10/08 09:52:30;;;;;;;27.13;16.62;;;;;;;9.63;75.87;98457.16;1799637;77;25809;-83
2021/10/08 09:55:05;;;;;;;27.02;16.73;;;;;;;9.85;75.55;98461.36;1817892;77;25889;-85
2021/10/08 09:57:54;;;;;;;26.15;16.55;;;;;;;10.07;75.13;98464.53;1846757;77;25708;-85
2021/10/08 10:00:43;;;;;;;30.02;17.02;;;;;;;10.24;74.57;98465.27;1846960;77;25660;-84
2021/10/08 10:03:16;;;;;;;27.67;16.77;;;;;;;10.39;74.66;98453.45;1846977;77;27473;-84
2021/10/08 10:05:43;;;;;;;;;;;;;;;10.61;74.24;98461.68;1849891;76;25663;-84
2021/10/08 10:08:11;;;;;;;29.07;17.07;;;;;;;10.67;73.62;98460.41;1814364;76;25250;-85
2021/10/08 10:10:39;;;;;;;33.15;18.48;;;;;;;10.77;73.33;98456.06;1847553;77;25711;-84
2021/10/08 10:13:09;;;;;;;27.85;17.30;;;;;;;10.79;73.31;98459.42;1847506;77;25751;-84
2021/10/08 10:15:42;;;;;;;35.38;17.92;;;;;;;10.90;73.01;98455.41;1847475;77;27509;-83
2021/10/08 10:18:11;;;;;;;;;;;;;;;11.07;73.11;98457.73;1816811;77;25698;-84
2021/10/08 10:20:42;;;;;;;26.73;15.70;;;;;;;11.24;72.75;98460.19;1846933;77;26295;-84
2021/10/08 10:23:09;;;;;;;27.50;15.15;;;;;;;11.39;72.62;98456.43;1835315;76;25727;-85
2021/10/08 10:25:37;;;;;;;28.73;15.13;;;;;;;11.55;71.91;98458.06;1822814;76;25683;-86
2021/10/08 10:28:06;;;;;;;29.32;14.25;;;;;;;11.69;71.51;98459.88;1847546;77;27470;-86
2021/10/08 10:30:34;;;;;;;27.70;14.35;;;;;;;11.81;71.40;98458.38;1847285;77;25852;-83
2021/10/08 10:33:02;;;;;;;32.70;16.67;;;;;;;11.94;71.13;98455.47;1847457;76;26361;-84
2021/10/08 10:35:48;;;;;;;25.72;14.87;;;;;;;12.07;70.65;98463.70;1814068;77;25760;-84
2021/10/08 10:38:39;;;;;;;25.60;15.38;;;;;;;12.19;70.45;98458.08;1847549;77;26413;-85
2021/10/08 10:41:14;;;;;;;30.50;15.68;;;;;;;12.23;69.50;98455.28;1831628;76;27466;-84
2021/10/08 10:43:52;;;;;;;25.72;14.40;;;;;;;12.28;69.35;98454.19;1800332;77;25912;-86
2021/10/08 10:52:03;;;;;;;27.25;13.20;;;;;;;12.51;68.56;98457.48;1830765;77;25434;-83
2021/10/08 10:54:49;;;;;;;28.17;14.18;;;;;;;12.62;68.14;98447.95;1847402;76;27596;-88
2021/10/08 10:57:29;;;;;;;26.62;13.40;;;;;;;12.73;67.62;98450.11;1845546;76;26774;-85
2021/10/08 10:59:51;;;;;;;23.12;12.47;;;;;;;12.86;67.76;98446.63;1823843;77;25777;-84
2021/10/08 11:02:25;;;;;;;25.25;12.85;;;;;;;12.95;67.35;98442.71;1847578;76;25807;-84
2021/10/08 11:05:25;;;;;;;22.67;12.25;;;;;;;13.04;67.02;98448.82;1845499;76;25718;-85
2021/10/08 11:08:07;;;;;;;21.35;11.30;;;;;;;13.20;66.48;98454.74;1839578;77;27427;-88
2021/10/08 11:10:39;;;;;;;21.07;10.58;;;;;;;13.33;66.42;98448.02;1827968;77;25789;-85
2021/10/08 11:13:34;;;;;;;22.82;12.28;;;;;;;13.42;65.58;98443.23;1809453;78;25787;-84
2021/10/08 11:16:09;;;;;;;20.12;10.85;;;;;;;13.56;65.30;98453.60;1821086;77;26220;-84
2021/10/08 11:18:43;;;;;;;25.55;12.13;;;;;;;13.68;64.73;98450.61;1824279;77;25753;-90
2021/10/08 11:21:27;;;;;;;19.52;11.20;;;;;;;13.80;64.27;98446.77;1843575;77;27467;-90
2021/10/08 11:24:00;;;;;;;22.70;10.03;;;;;;;13.89;64.14;98449.06;1808573;77;25383;-88
2021/10/08 11:26:26;;;;;;;;;;;;;;;14.02;63.72;98449.08;1814138;77;25316;-85
2021/10/08 11:28:57;;;;;;;24.50;10.53;;;;;;;14.13;62.76;98457.67;1832832;77;25829;-86
2021/10/08 11:31:23;;;;;;;22.95;9.35;;;;;;;14.20;62.75;98449.83;1820645;77;25555;-85
2021/10/08 11:33:53;;;;;;;17.37;9.43;;;;;;;14.32;62.74;98445.96;1844513;77;27435;-87
2021/10/08 11:36:28;;;;;;;23.65;10.30;;;;;;;14.51;62.48;98450.56;1814003;77;25234;-85
2021/10/08 11:39:18;;;;;;;16.12;9.73;;;;;;;14.80;61.16;98455.22;1811323;77;25783;-85